createdAt,value
2019-04-25T00:01:15.956Z,12.00
2019-04-25T00:03:44.667Z,12.20
2019-04-25T00:06:15.163Z,11.60
2019-04-25T00:08:44.126Z,11.60
2019-04-25T00:11:12.597Z,11.60
2019-04-25T00:13:41.894Z,11.50
2019-04-25T00:16:11.543Z,11.60
2019-04-25T00:18:40.188Z,11.60
2019-04-25T00:21:16.212Z,11.20
2019-04-25T00:23:47.131Z,11.80
2019-04-25T00:26:22.801Z,11.90
2019-04-25T00:28:52.296Z,11.70
2019-04-25T00:31:22.229Z,11.90
2019-04-25T00:33:49.956Z,11.50
2019-04-25T00:36:17.990Z,11.60
2019-04-25T00:38:47.835Z,11.50
2019-04-25T00:41:16.972Z,11.80
2019-04-25T00:43:45.336Z,11.60
2019-04-25T00:46:13.164Z,11.50
2019-04-25T00:48:42.398Z,11.40
2019-04-25T00:51:11.801Z,11.30
2019-04-25T00:53:39.637Z,11.70
2019-04-25T00:56:07.515Z,11.50
2019-04-25T00:58:43.963Z,11.20
2019-04-25T01:01:47.944Z,11.50
2019-04-25T01:04:17.887Z,11.50
2019-04-25T01:06:47.569Z,11.40
2019-04-25T01:09:17.034Z,11.50
2019-04-25T01:11:44.745Z,11.30
2019-04-25T01:14:13.578Z,11.30
2019-04-25T01:16:41.818Z,11.70
2019-04-25T01:19:09.932Z,11.30
2019-04-25T01:21:37.660Z,11.20
2019-04-25T01:24:05.369Z,11.20
2019-04-25T01:26:33.930Z,11.10
2019-04-25T01:29:03.597Z,11.20
2019-04-25T01:31:33.628Z,11.10
2019-04-25T01:34:01.657Z,11.30
2019-04-25T01:36:57.971Z,11.20
2019-04-25T01:39:35.558Z,11.00
2019-04-25T01:42:11.719Z,11.00
2019-04-25T01:44:48.055Z,11.10
2019-04-25T01:47:16.505Z,11.20
2019-04-25T01:49:44.292Z,11.00
2019-04-25T01:52:13.656Z,11.00
2019-04-25T01:54:41.512Z,10.70
2019-04-25T01:57:09.592Z,11.10
2019-04-25T01:59:37.593Z,11.10
2019-04-25T02:02:08.295Z,11.30
2019-04-25T02:04:36.274Z,11.50
2019-04-25T02:07:05.185Z,10.90
2019-04-25T02:09:33.687Z,11.30
2019-04-25T02:12:16.647Z,11.10
2019-04-25T02:14:44.749Z,11.00
2019-04-25T02:17:14.169Z,11.00
2019-04-25T02:19:43.837Z,10.60
2019-04-25T02:22:11.833Z,11.10
2019-04-25T02:24:39.715Z,11.20
2019-04-25T02:27:07.564Z,11.00
2019-04-25T02:29:35.249Z,10.80
2019-04-25T02:32:08.725Z,10.90
2019-04-25T02:34:34.656Z,11.10
2019-04-25T02:37:08.364Z,11.10
2019-04-25T02:39:37.018Z,11.00
2019-04-25T02:42:07.890Z,11.00
2019-04-25T02:44:37.397Z,10.60
2019-04-25T02:47:34.744Z,10.80
2019-04-25T02:50:16.629Z,10.60
2019-04-25T02:53:06.141Z,10.60
2019-04-25T02:55:36.876Z,10.90
2019-04-25T02:58:08.106Z,10.50
2019-04-25T03:00:46.743Z,11.10
2019-04-25T03:03:05.736Z,10.90
2019-04-25T03:05:35.119Z,10.80
2019-04-25T03:08:05.300Z,10.90
2019-04-25T03:10:34.767Z,10.70
2019-04-25T03:13:06.971Z,10.80
2019-04-25T03:15:34.183Z,10.60
2019-04-25T03:18:04.740Z,10.80
2019-04-25T03:20:54.736Z,10.60
2019-04-25T03:23:42.719Z,10.60
2019-04-25T03:26:13.405Z,10.60
2019-04-25T03:28:41.712Z,10.60
2019-04-25T03:31:17.856Z,10.70
2019-04-25T03:33:39.192Z,10.80
2019-04-25T03:36:07.779Z,10.70
2019-04-25T03:38:35.718Z,10.80
2019-04-25T03:41:04.808Z,10.60
2019-04-25T03:43:33.336Z,10.50
2019-04-25T03:46:03.095Z,10.60
2019-04-25T03:48:30.920Z,10.30
2019-04-25T03:50:58.612Z,10.60
2019-04-25T03:53:26.352Z,10.80
2019-04-25T03:55:54.231Z,11.00
2019-04-25T03:58:22.038Z,10.70
2019-04-25T04:00:49.717Z,11.10
2019-04-25T04:03:17.607Z,11.30
2019-04-25T04:05:45.424Z,11.00
2019-04-25T04:08:15.868Z,11.20
2019-04-25T04:10:43.659Z,11.10
2019-04-25T04:13:12.103Z,11.20
2019-04-25T04:15:40.394Z,11.10
2019-04-25T04:18:44.182Z,11.00
2019-04-25T04:21:46.619Z,11.40
2019-04-25T04:24:19.001Z,11.50
2019-04-25T04:27:09.057Z,11.60
2019-04-25T04:29:36.957Z,11.60
2019-04-25T04:32:04.649Z,11.50
2019-04-25T04:34:33.742Z,11.40
2019-04-25T04:37:01.580Z,11.70
2019-04-25T04:39:29.454Z,11.60
2019-04-25T04:41:57.147Z,11.50
2019-04-25T04:44:24.851Z,11.50
2019-04-25T04:46:53.835Z,12.10
2019-04-25T04:49:21.704Z,11.70
2019-04-25T04:51:49.418Z,11.80
2019-04-25T04:54:17.295Z,12.20
2019-04-25T04:56:45.108Z,11.90
2019-04-25T04:59:14.615Z,11.70
2019-04-25T05:02:17.551Z,12.20
2019-04-25T05:05:14.828Z,12.20
2019-04-25T05:07:47.179Z,12.20
2019-04-25T05:10:17.695Z,12.10
2019-04-25T05:12:44.702Z,12.00
2019-04-25T05:15:15.315Z,11.80
2019-04-25T05:17:43.970Z,12.10
2019-04-25T05:20:12.019Z,12.20
2019-04-25T05:22:40.632Z,12.00
2019-04-25T05:25:08.457Z,12.00
2019-04-25T05:27:50.806Z,12.00
2019-04-25T05:30:09.525Z,12.30
2019-04-25T05:32:37.259Z,12.30
2019-04-25T05:35:05.410Z,12.40
2019-04-25T05:37:33.624Z,12.30
2019-04-25T05:40:03.694Z,11.90
2019-04-25T05:42:48.443Z,12.40
2019-04-25T05:45:18.544Z,12.50
2019-04-25T05:47:46.771Z,12.60
2019-04-25T05:50:15.706Z,12.30
2019-04-25T05:52:43.924Z,12.30
2019-04-25T05:55:14.312Z,12.90
2019-04-25T05:57:47.916Z,12.40
2019-04-25T06:00:15.082Z,12.60
2019-04-25T06:02:45.845Z,12.70
2019-04-25T06:05:13.270Z,12.70
2019-04-25T06:07:41.023Z,13.30
2019-04-25T06:10:26.669Z,13.20
2019-04-25T06:13:14.181Z,13.30
2019-04-25T06:15:44.306Z,13.50
2019-04-25T06:18:24.795Z,13.80
2019-04-25T06:20:52.243Z,13.30
2019-04-25T06:23:39.679Z,13.90
2019-04-25T06:26:19.902Z,13.30
2019-04-25T06:28:49.312Z,13.70
2019-04-25T06:31:10.395Z,13.60
2019-04-25T06:33:38.331Z,13.70
2019-04-25T06:36:06.136Z,14.20
2019-04-25T06:38:35.164Z,14.50
2019-04-25T06:41:03.553Z,14.90
2019-04-25T06:43:32.607Z,14.80
2019-04-25T06:46:36.131Z,14.80
2019-04-25T06:49:17.433Z,14.50
2019-04-25T06:51:49.683Z,14.50
2019-04-25T06:54:17.530Z,14.10
2019-04-25T06:56:45.259Z,14.00
2019-04-25T06:59:14.321Z,14.00
2019-04-25T07:01:43.913Z,14.30
2019-04-25T07:04:11.790Z,14.10
2019-04-25T07:06:39.472Z,14.10
2019-04-25T07:09:08.953Z,14.00
2019-04-25T07:11:36.652Z,14.30
2019-04-25T07:14:04.958Z,13.90
2019-04-25T07:16:33.759Z,13.90
2019-04-25T07:19:04.614Z,13.80
2019-04-25T07:21:34.460Z,13.80
2019-04-25T07:24:02.155Z,13.90
2019-04-25T07:27:04.392Z,14.30
2019-04-25T07:29:50.795Z,14.10
2019-04-25T07:32:31.285Z,14.00
2019-04-25T07:34:59.303Z,14.40
2019-04-25T07:37:27.659Z,14.40
2019-04-25T07:39:55.585Z,14.30
2019-04-25T07:42:23.842Z,14.70
2019-04-25T07:44:53.461Z,14.50
2019-04-25T07:47:21.671Z,14.70
2019-04-25T07:49:49.375Z,14.50
2019-04-25T07:52:17.081Z,14.60
2019-04-25T07:54:44.963Z,14.90
2019-04-25T07:57:13.579Z,14.80
2019-04-25T07:59:41.446Z,14.80
2019-04-25T08:02:09.281Z,14.80
2019-04-25T08:04:37.091Z,14.90
2019-04-25T08:07:05.130Z,14.90
2019-04-25T08:09:34.531Z,14.70
2019-04-25T08:12:03.351Z,14.60
2019-04-25T08:14:46.083Z,15.10
2019-04-25T08:17:15.504Z,14.70
2019-04-25T08:19:44.265Z,15.00
2019-04-25T08:22:13.630Z,15.50
2019-04-25T08:24:43.868Z,15.30
2019-04-25T08:27:13.333Z,15.30
2019-04-25T08:29:41.261Z,15.30
2019-04-25T08:32:09.321Z,15.90
2019-04-25T08:34:38.617Z,15.80
2019-04-25T08:37:17.623Z,16.70
2019-04-25T08:39:37.334Z,16.60
2019-04-25T08:42:05.679Z,16.90
2019-04-25T08:44:34.814Z,17.70
2019-04-25T08:47:04.487Z,18.10
2019-04-25T08:49:38.944Z,18.40
2019-04-25T08:52:06.834Z,19.50
2019-04-25T08:54:54.630Z,19.50
2019-04-25T08:57:44.047Z,20.10
2019-04-25T09:00:33.056Z,19.90
2019-04-25T09:03:05.939Z,20.20
2019-04-25T09:05:38.873Z,20.20
2019-04-25T09:08:07.850Z,20.70
2019-04-25T09:10:37.381Z,20.90
2019-04-25T09:13:05.293Z,21.40
2019-04-25T09:15:35.625Z,20.90
2019-04-25T09:18:04.055Z,20.90
2019-04-25T09:20:31.900Z,21.40
2019-04-25T09:22:59.727Z,21.50
2019-04-25T09:25:27.541Z,22.10
2019-04-25T09:27:56.045Z,22.20
2019-04-25T09:30:24.147Z,22.50
2019-04-25T09:32:53.403Z,22.40
2019-04-25T09:35:21.439Z,22.00
2019-04-25T09:37:49.358Z,21.60
2019-04-25T09:40:17.403Z,22.20
2019-04-25T09:42:47.298Z,21.50
2019-04-25T09:45:36.123Z,21.50
2019-04-25T09:48:26.895Z,22.00
2019-04-25T09:51:09.188Z,22.00
2019-04-25T09:53:43.234Z,22.20
2019-04-25T09:56:14.660Z,22.20
2019-04-25T09:58:49.475Z,21.80
2019-04-25T10:01:17.570Z,21.70
2019-04-25T10:03:45.722Z,21.60
2019-04-25T10:06:16.400Z,21.70
2019-04-25T10:08:45.388Z,21.60
2019-04-25T10:11:14.806Z,21.60
2019-04-25T10:13:53.604Z,22.10
2019-04-25T10:16:21.402Z,22.30
2019-04-25T10:18:49.252Z,22.40
2019-04-25T10:21:17.219Z,22.40
2019-04-25T10:23:46.624Z,22.40
2019-04-25T10:26:14.707Z,21.90
2019-04-25T10:28:45.207Z,22.20
2019-04-25T10:31:13.745Z,22.10
2019-04-25T10:33:43.707Z,22.10
2019-04-25T10:36:12.346Z,23.00
2019-04-25T10:38:40.530Z,22.90
2019-04-25T10:41:09.017Z,22.40
2019-04-25T10:43:37.957Z,23.00
2019-04-25T10:46:06.272Z,23.30
2019-04-25T10:48:34.649Z,23.20
2019-04-25T10:51:04.159Z,23.30
2019-04-25T10:53:33.844Z,23.20
2019-04-25T10:56:03.793Z,23.40
2019-04-25T10:58:31.277Z,23.50
2019-04-25T11:00:59.228Z,23.80
2019-04-25T11:03:37.509Z,23.10
2019-04-25T11:06:05.415Z,23.00
2019-04-25T11:08:34.063Z,23.20
2019-04-25T11:11:03.769Z,23.00
2019-04-25T11:13:33.909Z,23.00
2019-04-25T11:16:03.151Z,23.10
2019-04-25T11:18:31.709Z,23.00
2019-04-25T11:20:59.365Z,23.20
2019-04-25T11:23:27.037Z,23.10
2019-04-25T11:25:55.150Z,23.80
2019-04-25T11:28:23.557Z,23.80
2019-04-25T11:30:52.755Z,23.90
2019-04-25T11:33:21.375Z,23.70
2019-04-25T11:35:50.266Z,23.70
2019-04-25T11:38:25.631Z,23.90
2019-04-25T11:40:59.546Z,24.20
2019-04-25T11:43:27.433Z,24.60
2019-04-25T11:45:56.022Z,24.80
2019-04-25T11:48:24.828Z,24.90
2019-04-25T11:50:55.719Z,24.20
2019-04-25T11:53:24.762Z,24.60
2019-04-25T11:55:53.762Z,24.60
2019-04-25T11:58:23.584Z,24.60
2019-04-25T12:00:51.556Z,24.80
2019-04-25T12:03:19.498Z,24.60
2019-04-25T12:05:48.426Z,24.40
2019-04-25T12:08:17.036Z,24.50
2019-04-25T12:10:45.793Z,23.90
2019-04-25T12:13:15.404Z,23.80
2019-04-25T12:15:46.048Z,23.20
2019-04-25T12:18:13.777Z,23.10
2019-04-25T12:20:44.061Z,23.20
2019-04-25T12:23:14.296Z,23.20
2019-04-25T12:25:42.342Z,23.10
2019-04-25T12:28:11.977Z,22.90
2019-04-25T12:30:40.508Z,22.60
2019-04-25T12:33:18.231Z,22.00
2019-04-25T12:35:38.085Z,21.80
2019-04-25T12:38:05.982Z,21.70
2019-04-25T12:40:34.382Z,21.70
2019-04-25T12:43:03.173Z,21.80
2019-04-25T12:45:40.622Z,22.10
2019-04-25T12:48:08.634Z,21.50
2019-04-25T12:50:36.617Z,21.20
2019-04-25T12:53:04.670Z,21.00
2019-04-25T12:55:34.101Z,20.40
2019-04-25T12:58:05.816Z,20.20
2019-04-25T13:00:34.261Z,19.60
2019-04-25T13:03:04.285Z,19.30
2019-04-25T13:05:34.229Z,19.10
2019-04-25T13:08:04.550Z,18.40
2019-04-25T13:10:33.186Z,17.90
2019-04-25T13:13:01.250Z,17.20
2019-04-25T13:15:28.971Z,16.70
2019-04-25T13:17:56.908Z,16.20
2019-04-25T13:20:24.591Z,16.50
2019-04-25T13:22:53.266Z,16.30
2019-04-25T13:25:24.289Z,16.20
2019-04-25T13:28:10.276Z,15.90
2019-04-25T13:31:04.941Z,15.80
2019-04-25T13:33:37.918Z,15.60
2019-04-25T13:36:09.005Z,15.60
2019-04-25T13:38:36.736Z,15.80
2019-04-25T13:41:04.635Z,15.60
2019-04-25T13:43:32.834Z,15.90
2019-04-25T13:46:00.785Z,15.80
2019-04-25T13:48:29.441Z,15.80
2019-04-25T13:50:57.234Z,15.60
2019-04-25T13:53:27.269Z,15.80
2019-04-25T13:55:55.349Z,15.80
2019-04-25T13:58:24.516Z,15.90
2019-04-25T14:00:53.285Z,16.10
2019-04-25T14:03:21.808Z,16.20
2019-04-25T14:05:49.664Z,16.10
2019-04-25T14:08:17.376Z,16.20
2019-04-25T14:10:47.390Z,16.70
2019-04-25T14:13:15.066Z,16.10
2019-04-25T14:15:50.363Z,16.50
2019-04-25T14:18:38.495Z,16.30
2019-04-25T14:21:14.182Z,17.10
2019-04-25T14:23:42.046Z,17.10
2019-04-25T14:26:10.105Z,16.90
2019-04-25T14:28:39.936Z,16.90
2019-04-25T14:31:09.754Z,16.90
2019-04-25T14:33:37.784Z,16.80
2019-04-25T14:36:05.810Z,17.20
2019-04-25T14:38:34.235Z,17.10
2019-04-25T14:41:04.433Z,17.20
2019-04-25T14:43:32.385Z,16.40
2019-04-25T14:46:01.213Z,16.40
2019-04-25T14:48:29.419Z,16.30
2019-04-25T14:50:57.335Z,16.60
2019-04-25T14:53:25.799Z,16.30
2019-04-25T14:56:02.561Z,16.40
2019-04-25T14:58:32.736Z,16.60
2019-04-25T15:01:04.611Z,16.40
2019-04-25T15:03:34.950Z,16.50
2019-04-25T15:06:02.781Z,16.30
2019-04-25T15:08:30.702Z,16.50
2019-04-25T15:10:58.634Z,16.40
2019-04-25T15:13:26.501Z,16.40
2019-04-25T15:15:54.202Z,16.60
2019-04-25T15:18:22.418Z,17.10
2019-04-25T15:20:51.533Z,17.30
2019-04-25T15:23:19.502Z,16.70
2019-04-25T15:25:47.364Z,17.00
2019-04-25T15:28:15.098Z,17.00
2019-04-25T15:30:43.014Z,16.90
2019-04-25T15:33:11.309Z,17.50
2019-04-25T15:35:50.797Z,17.60
2019-04-25T15:38:30.143Z,17.80
2019-04-25T15:41:05.081Z,18.10
2019-04-25T15:44:01.044Z,18.10
2019-04-25T15:46:32.309Z,18.10
2019-04-25T15:49:00.231Z,18.00
2019-04-25T15:51:27.990Z,17.60
2019-04-25T15:53:55.897Z,17.10
2019-04-25T15:56:23.619Z,17.30
2019-04-25T15:58:51.526Z,17.70
2019-04-25T16:01:19.379Z,17.60
2019-04-25T16:03:47.079Z,17.50
2019-04-25T16:06:15.028Z,17.50
2019-04-25T16:08:42.750Z,17.60
2019-04-25T16:11:10.677Z,17.60
2019-04-25T16:13:38.408Z,17.60
2019-04-25T16:16:08.060Z,17.70
2019-04-25T16:18:35.784Z,17.90
2019-04-25T16:21:03.743Z,17.90
2019-04-25T16:23:32.154Z,17.50
2019-04-25T16:26:00.270Z,17.90
2019-04-25T16:28:28.819Z,18.20
2019-04-25T16:30:57.013Z,18.10
2019-04-25T16:33:24.897Z,17.70
2019-04-25T16:35:52.661Z,18.30
2019-04-25T16:38:20.359Z,18.30
2019-04-25T16:40:48.402Z,18.30
2019-04-25T16:43:20.442Z,18.00
2019-04-25T16:45:50.075Z,17.90
2019-04-25T16:48:20.309Z,17.70
2019-04-25T16:50:48.176Z,17.60
2019-04-25T16:53:16.057Z,17.90
2019-04-25T16:55:44.101Z,18.00
2019-04-25T16:58:12.138Z,17.70
2019-04-25T17:00:51.527Z,17.60
2019-04-25T17:03:21.378Z,18.10
2019-04-25T17:05:49.082Z,17.70
2019-04-25T17:08:17.294Z,17.50
2019-04-25T17:10:45.267Z,17.20
2019-04-25T17:13:13.140Z,16.90
2019-04-25T17:16:00.762Z,16.90
2019-04-25T17:18:34.871Z,16.60
2019-04-25T17:21:05.013Z,16.20
2019-04-25T17:23:32.906Z,16.30
2019-04-25T17:26:00.879Z,16.20
2019-04-25T17:28:31.389Z,15.90
2019-04-25T17:31:22.105Z,16.00
2019-04-25T17:34:00.061Z,15.90
2019-04-25T17:36:37.113Z,15.80
2019-04-25T17:39:20.427Z,15.90
2019-04-25T17:41:48.175Z,15.80
2019-04-25T17:44:16.049Z,16.10
2019-04-25T17:46:45.691Z,15.90
2019-04-25T17:49:13.377Z,15.70
2019-04-25T17:51:41.977Z,15.80
2019-04-25T17:54:10.006Z,16.00
2019-04-25T17:56:39.762Z,16.00
2019-04-25T17:59:07.755Z,15.60
2019-04-25T18:01:37.962Z,15.90
2019-04-25T18:04:06.055Z,16.10
2019-04-25T18:06:35.653Z,15.80
2019-04-25T18:09:05.158Z,16.00
2019-04-25T18:11:33.718Z,15.70
2019-04-25T18:14:02.570Z,15.30
2019-04-25T18:16:40.769Z,15.20
2019-04-25T18:19:35.095Z,15.30
2019-04-25T18:22:10.298Z,14.80
2019-04-25T18:24:58.430Z,14.80
2019-04-25T18:27:33.565Z,14.90
2019-04-25T18:30:01.968Z,14.80
2019-04-25T18:32:33.381Z,14.70
2019-04-25T18:35:06.674Z,14.60
2019-04-25T18:37:52.665Z,14.90
2019-04-25T18:40:35.456Z,14.20
2019-04-25T18:43:20.215Z,14.50
2019-04-25T18:45:52.466Z,14.20
2019-04-25T18:48:20.156Z,14.30
2019-04-25T18:50:48.005Z,14.40
2019-04-25T18:53:35.447Z,14.40
2019-04-25T18:56:32.947Z,14.10
2019-04-25T18:59:19.975Z,14.40
2019-04-25T19:02:19.520Z,14.30
2019-04-25T19:05:22.012Z,14.60
2019-04-25T19:07:49.869Z,14.20
2019-04-25T19:10:18.221Z,14.40
2019-04-25T19:12:47.259Z,14.30
2019-04-25T19:15:15.305Z,14.50
2019-04-25T19:17:43.383Z,14.40
2019-04-25T19:20:13.292Z,14.50
2019-04-25T19:22:41.505Z,14.70
2019-04-25T19:25:09.751Z,14.80
2019-04-25T19:27:37.834Z,14.70
2019-04-25T19:30:09.568Z,14.40
2019-04-25T19:32:37.283Z,14.20
2019-04-25T19:35:05.740Z,14.00
2019-04-25T19:37:33.514Z,14.30
2019-04-25T19:40:13.220Z,14.40
2019-04-25T19:42:45.149Z,14.10
2019-04-25T19:45:13.178Z,14.00
2019-04-25T19:47:41.492Z,14.30
2019-04-25T19:50:09.521Z,14.40
2019-04-25T19:52:37.432Z,14.40
2019-04-25T19:55:05.797Z,14.20
2019-04-25T19:57:33.559Z,14.30
2019-04-25T20:00:01.644Z,14.40
2019-04-25T20:02:48.642Z,14.20
2019-04-25T20:05:28.794Z,14.10
2019-04-25T20:08:03.225Z,14.00
2019-04-25T20:10:45.135Z,14.00
2019-04-25T20:13:13.729Z,14.20
2019-04-25T20:15:41.611Z,14.00
2019-04-25T20:18:09.463Z,14.10
2019-04-25T20:20:37.404Z,14.00
2019-04-25T20:23:05.122Z,13.60
2019-04-25T20:25:32.949Z,13.90
2019-04-25T20:28:01.936Z,14.30
2019-04-25T20:30:29.633Z,13.60
2019-04-25T20:32:57.321Z,13.50
2019-04-25T20:35:25.292Z,13.60
2019-04-25T20:37:53.408Z,13.90
2019-04-25T20:40:23.346Z,13.80
2019-04-25T20:42:51.963Z,13.80
2019-04-25T20:45:19.982Z,13.60
2019-04-25T20:47:47.991Z,13.40
2019-04-25T20:50:16.032Z,13.10
2019-04-25T20:52:43.739Z,13.00
2019-04-25T20:55:11.571Z,13.40
2019-04-25T20:57:39.457Z,13.50
2019-04-25T21:00:08.933Z,13.60
2019-04-25T21:02:36.636Z,13.50
2019-04-25T21:05:04.763Z,13.50
2019-04-25T21:07:32.466Z,13.10
2019-04-25T21:10:00.453Z,13.60
2019-04-25T21:12:28.556Z,13.70
2019-04-25T21:15:10.412Z,13.50
2019-04-25T21:17:58.379Z,13.60
2019-04-25T21:20:26.212Z,13.60
2019-04-25T21:22:53.952Z,13.60
2019-04-25T21:25:22.883Z,13.60
2019-04-25T21:27:51.248Z,13.70
2019-04-25T21:30:19.513Z,13.50
2019-04-25T21:32:55.516Z,13.50
2019-04-25T21:35:26.655Z,13.80
2019-04-25T21:37:55.413Z,13.60
2019-04-25T21:40:43.358Z,13.80
2019-04-25T21:43:20.383Z,13.70
2019-04-25T21:45:48.661Z,13.10
2019-04-25T21:48:17.003Z,13.00
2019-04-25T21:50:45.405Z,13.30
2019-04-25T21:53:13.122Z,12.70
2019-04-25T21:55:41.169Z,13.30
2019-04-25T21:58:09.333Z,13.10
2019-04-25T22:00:56.523Z,13.10
2019-04-25T22:03:26.549Z,13.10
2019-04-25T22:05:55.796Z,13.10
2019-04-25T22:08:24.676Z,13.10
2019-04-25T22:10:52.671Z,13.30
2019-04-25T22:13:20.437Z,13.10
2019-04-25T22:15:48.585Z,13.40
2019-04-25T22:18:18.161Z,13.10
2019-04-25T22:20:46.157Z,13.20
2019-04-25T22:23:14.332Z,13.00
2019-04-25T22:25:42.452Z,13.40
2019-04-25T22:28:10.582Z,13.20
2019-04-25T22:30:40.430Z,13.20
2019-04-25T22:33:21.343Z,12.90
2019-04-25T22:35:53.031Z,12.90
2019-04-25T22:38:21.037Z,12.90
2019-04-25T22:40:48.831Z,13.20
2019-04-25T22:43:17.155Z,12.70
2019-04-25T22:45:46.170Z,12.90
2019-04-25T22:48:15.802Z,13.00
2019-04-25T22:50:50.052Z,13.00
2019-04-25T22:53:22.874Z,13.10
2019-04-25T22:55:47.780Z,12.70
2019-04-25T22:58:15.634Z,12.80
2019-04-25T23:00:43.332Z,12.70
2019-04-25T23:03:18.167Z,12.60
2019-04-25T23:05:50.504Z,12.70
2019-04-25T23:08:18.625Z,12.20
2019-04-25T23:10:46.320Z,12.20
2019-04-25T23:13:14.650Z,12.20
2019-04-25T23:15:42.355Z,12.30
2019-04-25T23:18:11.317Z,12.30
2019-04-25T23:20:39.421Z,12.30
2019-04-25T23:23:09.705Z,12.20
2019-04-25T23:26:07.890Z,11.90
2019-04-25T23:28:38.820Z,12.10
2019-04-25T23:31:15.271Z,12.20
2019-04-25T23:33:43.573Z,11.80
2019-04-25T23:36:11.634Z,11.90
2019-04-25T23:38:39.503Z,11.70
2019-04-25T23:41:09.522Z,11.80
2019-04-25T23:43:37.281Z,12.10
2019-04-25T23:46:05.694Z,11.90
2019-04-25T23:48:33.934Z,11.80
2019-04-25T23:51:01.650Z,11.60
2019-04-25T23:53:30.666Z,11.70
2019-04-25T23:55:58.378Z,11.80
2019-04-25T23:58:26.257Z,11.50
